70  °F
Temperature
21  °C
Temperature
13  °C
 Dewpoint
55  °F
  Dewpoint
60  %
 Humidity
  Temperature
13  mph
Wind Speed
11  kts
Wind Speed
21  km/h
Wind Speed
5.8  m/s
Wind Speed
340°
North North
West

Wind Speed
Clear
Conditions
Pressure 29.95 (inHG) - 1014.22 (mb)
Visibility 10.0 (mi) - 16.1 (km)

Sky Conditions
KNUQ
Location Moffett Federal Afld 2.5 mi (4.02 km)
Metar :KNUQ 242256Z 34011KT 10SM CLR 21/13 A2995 RMK AO2 SLP145 T02110133
Fri 24th May 15:56 pm

Nearest Airport
https://www.checkwx.com/weather/KNUQ
  Metar Aviation API Data Provided by https://www.checkwx.com/ Original CSS/SVG/PHP scripts by weather34.com © 2015-2019